sensor_id;sensor_type;location;lat;lon;timestamp;temperature;humidity
45409;DHT22;31162;51.076;3.784;2023-02-03T00:00:58;10.30;99.90
45409;DHT22;31162;51.076;3.784;2023-02-03T00:03:23;10.30;99.90
45409;DHT22;31162;51.076;3.784;2023-02-03T00:05:49;10.30;99.90
45409;DHT22;31162;51.076;3.784;2023-02-03T00:08:16;10.30;99.90
45409;DHT22;31162;51.076;3.784;2023-02-03T00:10:43;10.30;99.90
45409;DHT22;31162;51.076;3.784;2023-02-03T00:13:10;10.30;99.90
45409;DHT22;31162;51.076;3.784;2023-02-03T00:15:36;10.40;99.90
45409;DHT22;31162;51.076;3.784;2023-02-03T00:18:01;10.30;99.90
45409;DHT22;31162;51.076;3.784;2023-02-03T00:20:27;10.40;99.90
45409;DHT22;31162;51.076;3.784;2023-02-03T00:22:53;10.50;99.90
45409;DHT22;31162;51.076;3.784;2023-02-03T00:25:18;10.50;99.90
45409;DHT22;31162;51.076;3.784;2023-02-03T00:27:46;10.50;99.90
45409;DHT22;31162;51.076;3.784;2023-02-03T00:30:12;10.50;99.90
45409;DHT22;31162;51.076;3.784;2023-02-03T00:32:37;10.50;99.90
45409;DHT22;31162;51.076;3.784;2023-02-03T00:35:04;10.60;99.90
45409;DHT22;31162;51.076;3.784;2023-02-03T00:37:30;10.60;99.90
45409;DHT22;31162;51.076;3.784;2023-02-03T00:39:55;10.50;99.90
45409;DHT22;31162;51.076;3.784;2023-02-03T00:42:21;10.60;99.90
45409;DHT22;31162;51.076;3.784;2023-02-03T00:44:47;10.60;99.90
45409;DHT22;31162;51.076;3.784;2023-02-03T00:47:12;10.70;99.90
45409;DHT22;31162;51.076;3.784;2023-02-03T00:49:38;10.70;99.90
45409;DHT22;31162;51.076;3.784;2023-02-03T00:52:04;10.70;99.90
45409;DHT22;31162;51.076;3.784;2023-02-03T00:54:30;10.70;99.90
45409;DHT22;31162;51.076;3.784;2023-02-03T00:56:55;10.80;99.90
45409;DHT22;31162;51.076;3.784;2023-02-03T00:59:21;10.80;99.90
45409;DHT22;31162;51.076;3.784;2023-02-03T01:01:46;10.90;99.90
45409;DHT22;31162;51.076;3.784;2023-02-03T01:04:14;10.80;99.90
45409;DHT22;31162;51.076;3.784;2023-02-03T01:06:40;10.90;99.90
45409;DHT22;31162;51.076;3.784;2023-02-03T01:09:06;10.80;99.90
45409;DHT22;31162;51.076;3.784;2023-02-03T01:11:32;10.90;99.90
45409;DHT22;31162;51.076;3.784;2023-02-03T01:13:57;10.80;99.90
45409;DHT22;31162;51.076;3.784;2023-02-03T01:16:27;10.80;99.90
45409;DHT22;31162;51.076;3.784;2023-02-03T01:18:55;10.80;99.90
45409;DHT22;31162;51.076;3.784;2023-02-03T01:21:23;10.70;99.90
45409;DHT22;31162;51.076;3.784;2023-02-03T01:23:50;10.70;99.90
45409;DHT22;31162;51.076;3.784;2023-02-03T01:26:18;10.70;99.90
45409;DHT22;31162;51.076;3.784;2023-02-03T01:28:50;10.70;99.90
45409;DHT22;31162;51.076;3.784;2023-02-03T01:31:19;10.70;99.90
45409;DHT22;31162;51.076;3.784;2023-02-03T01:33:44;10.80;99.90
45409;DHT22;31162;51.076;3.784;2023-02-03T01:36:13;10.80;99.90
45409;DHT22;31162;51.076;3.784;2023-02-03T01:38:39;10.70;99.90
45409;DHT22;31162;51.076;3.784;2023-02-03T01:41:08;10.70;99.90
45409;DHT22;31162;51.076;3.784;2023-02-03T01:43:45;10.80;99.90
45409;DHT22;31162;51.076;3.784;2023-02-03T01:49:19;10.80;99.90
45409;DHT22;31162;51.076;3.784;2023-02-03T01:51:46;10.90;99.90
45409;DHT22;31162;51.076;3.784;2023-02-03T01:54:23;10.90;99.90
45409;DHT22;31162;51.076;3.784;2023-02-03T01:56:55;10.80;99.90
45409;DHT22;31162;51.076;3.784;2023-02-03T01:59:23;10.80;99.90
45409;DHT22;31162;51.076;3.784;2023-02-03T02:01:49;10.70;99.90
45409;DHT22;31162;51.076;3.784;2023-02-03T02:04:16;10.80;99.90
45409;DHT22;31162;51.076;3.784;2023-02-03T02:06:42;10.70;99.90
45409;DHT22;31162;51.076;3.784;2023-02-03T02:09:09;10.80;99.90
45409;DHT22;31162;51.076;3.784;2023-02-03T02:11:35;10.80;99.90
45409;DHT22;31162;51.076;3.784;2023-02-03T02:14:02;10.80;99.90
45409;DHT22;31162;51.076;3.784;2023-02-03T02:16:55;10.70;99.90
45409;DHT22;31162;51.076;3.784;2023-02-03T02:28:06;10.70;99.90
45409;DHT22;31162;51.076;3.784;2023-02-03T02:30:52;10.60;99.90
45409;DHT22;31162;51.076;3.784;2023-02-03T02:33:34;10.70;99.90
45409;DHT22;31162;51.076;3.784;2023-02-03T02:36:25;10.80;99.90
45409;DHT22;31162;51.076;3.784;2023-02-03T02:42:00;10.70;99.90
45409;DHT22;31162;51.076;3.784;2023-02-03T02:44:40;10.70;99.90
45409;DHT22;31162;51.076;3.784;2023-02-03T02:47:25;10.80;99.90
45409;DHT22;31162;51.076;3.784;2023-02-03T02:52:29;10.70;99.90
45409;DHT22;31162;51.076;3.784;2023-02-03T02:55:00;10.70;99.90
45409;DHT22;31162;51.076;3.784;2023-02-03T02:57:28;10.60;99.90
45409;DHT22;31162;51.076;3.784;2023-02-03T02:59:56;10.60;99.90
45409;DHT22;31162;51.076;3.784;2023-02-03T03:02:25;10.60;99.90
45409;DHT22;31162;51.076;3.784;2023-02-03T03:04:51;10.70;99.90
45409;DHT22;31162;51.076;3.784;2023-02-03T03:07:21;10.60;99.90
45409;DHT22;31162;51.076;3.784;2023-02-03T03:09:51;10.70;99.90
45409;DHT22;31162;51.076;3.784;2023-02-03T03:12:22;10.70;99.90
45409;DHT22;31162;51.076;3.784;2023-02-03T03:14:53;10.60;99.90
45409;DHT22;31162;51.076;3.784;2023-02-03T03:17:27;10.70;99.90
45409;DHT22;31162;51.076;3.784;2023-02-03T03:19:55;10.60;99.90
45409;DHT22;31162;51.076;3.784;2023-02-03T03:22:27;10.70;99.90
45409;DHT22;31162;51.076;3.784;2023-02-03T03:25:13;10.70;99.90
45409;DHT22;31162;51.076;3.784;2023-02-03T03:27:43;10.70;99.90
45409;DHT22;31162;51.076;3.784;2023-02-03T03:30:16;10.60;99.90
45409;DHT22;31162;51.076;3.784;2023-02-03T03:32:43;10.60;99.90
45409;DHT22;31162;51.076;3.784;2023-02-03T03:35:09;10.60;99.90
45409;DHT22;31162;51.076;3.784;2023-02-03T03:37:40;10.70;99.90
45409;DHT22;31162;51.076;3.784;2023-02-03T03:40:17;10.70;99.90
45409;DHT22;31162;51.076;3.784;2023-02-03T03:42:50;10.70;99.90
45409;DHT22;31162;51.076;3.784;2023-02-03T03:50:32;10.60;99.90
45409;DHT22;31162;51.076;3.784;2023-02-03T03:53:01;10.50;99.90
45409;DHT22;31162;51.076;3.784;2023-02-03T03:55:30;10.60;99.90
45409;DHT22;31162;51.076;3.784;2023-02-03T04:00:35;10.60;99.90
45409;DHT22;31162;51.076;3.784;2023-02-03T04:03:12;10.60;99.90
45409;DHT22;31162;51.076;3.784;2023-02-03T04:05:39;10.60;99.90
45409;DHT22;31162;51.076;3.784;2023-02-03T04:08:05;10.60;99.90
45409;DHT22;31162;51.076;3.784;2023-02-03T04:10:37;10.60;99.90
45409;DHT22;31162;51.076;3.784;2023-02-03T04:13:04;10.70;99.90
45409;DHT22;31162;51.076;3.784;2023-02-03T04:15:31;10.70;99.90
45409;DHT22;31162;51.076;3.784;2023-02-03T04:17:57;10.70;99.90
45409;DHT22;31162;51.076;3.784;2023-02-03T04:20:23;10.60;99.90
45409;DHT22;31162;51.076;3.784;2023-02-03T04:22:49;10.60;99.90
45409;DHT22;31162;51.076;3.784;2023-02-03T04:25:15;10.60;99.90
45409;DHT22;31162;51.076;3.784;2023-02-03T04:27:41;10.70;99.90
45409;DHT22;31162;51.076;3.784;2023-02-03T04:30:07;10.60;99.90
45409;DHT22;31162;51.076;3.784;2023-02-03T04:32:33;10.70;99.90
45409;DHT22;31162;51.076;3.784;2023-02-03T04:35:00;10.70;99.90
45409;DHT22;31162;51.076;3.784;2023-02-03T04:37:26;10.70;99.90
45409;DHT22;31162;51.076;3.784;2023-02-03T04:39:53;10.70;99.90
45409;DHT22;31162;51.076;3.784;2023-02-03T04:42:20;10.70;99.90
45409;DHT22;31162;51.076;3.784;2023-02-03T04:44:46;10.70;99.90
45409;DHT22;31162;51.076;3.784;2023-02-03T04:47:12;10.70;99.90
45409;DHT22;31162;51.076;3.784;2023-02-03T04:49:38;10.70;99.90
45409;DHT22;31162;51.076;3.784;2023-02-03T04:52:04;10.70;99.90
45409;DHT22;31162;51.076;3.784;2023-02-03T04:54:30;10.70;99.90
45409;DHT22;31162;51.076;3.784;2023-02-03T04:56:55;10.80;99.90
45409;DHT22;31162;51.076;3.784;2023-02-03T04:59:21;10.80;99.90
45409;DHT22;31162;51.076;3.784;2023-02-03T05:01:47;10.80;99.90
45409;DHT22;31162;51.076;3.784;2023-02-03T05:04:13;10.80;99.90
45409;DHT22;31162;51.076;3.784;2023-02-03T05:06:38;10.80;99.90
45409;DHT22;31162;51.076;3.784;2023-02-03T05:09:04;10.70;99.90
45409;DHT22;31162;51.076;3.784;2023-02-03T05:11:30;10.70;99.90
45409;DHT22;31162;51.076;3.784;2023-02-03T05:13:56;10.70;99.90
45409;DHT22;31162;51.076;3.784;2023-02-03T05:16:22;10.70;99.90
45409;DHT22;31162;51.076;3.784;2023-02-03T05:18:48;10.80;99.90
45409;DHT22;31162;51.076;3.784;2023-02-03T05:21:13;10.80;99.90
45409;DHT22;31162;51.076;3.784;2023-02-03T05:23:39;10.80;99.90
45409;DHT22;31162;51.076;3.784;2023-02-03T05:26:05;10.80;99.90
45409;DHT22;31162;51.076;3.784;2023-02-03T05:28:30;10.70;99.90
45409;DHT22;31162;51.076;3.784;2023-02-03T05:31:00;10.70;99.90
45409;DHT22;31162;51.076;3.784;2023-02-03T05:33:27;10.70;99.90
45409;DHT22;31162;51.076;3.784;2023-02-03T05:35:53;10.60;99.90
45409;DHT22;31162;51.076;3.784;2023-02-03T05:38:19;10.70;99.90
45409;DHT22;31162;51.076;3.784;2023-02-03T05:40:48;10.70;99.90
45409;DHT22;31162;51.076;3.784;2023-02-03T05:43:33;10.70;99.90
45409;DHT22;31162;51.076;3.784;2023-02-03T05:46:00;10.80;99.90
45409;DHT22;31162;51.076;3.784;2023-02-03T05:48:26;10.80;99.90
45409;DHT22;31162;51.076;3.784;2023-02-03T05:50:52;10.80;99.90
45409;DHT22;31162;51.076;3.784;2023-02-03T05:53:17;10.80;99.90
45409;DHT22;31162;51.076;3.784;2023-02-03T05:55:43;10.80;99.90
45409;DHT22;31162;51.076;3.784;2023-02-03T05:58:09;10.80;99.90
45409;DHT22;31162;51.076;3.784;2023-02-03T06:00:34;10.60;99.90
45409;DHT22;31162;51.076;3.784;2023-02-03T06:03:02;10.50;99.90
45409;DHT22;31162;51.076;3.784;2023-02-03T06:05:28;10.50;99.90
45409;DHT22;31162;51.076;3.784;2023-02-03T06:07:54;10.40;99.90
45409;DHT22;31162;51.076;3.784;2023-02-03T06:10:21;10.40;99.90
45409;DHT22;31162;51.076;3.784;2023-02-03T06:12:47;10.40;99.90
45409;DHT22;31162;51.076;3.784;2023-02-03T06:15:12;10.30;99.90
45409;DHT22;31162;51.076;3.784;2023-02-03T06:17:38;10.30;99.90
45409;DHT22;31162;51.076;3.784;2023-02-03T06:20:07;10.30;99.90
45409;DHT22;31162;51.076;3.784;2023-02-03T06:22:34;10.30;99.90
45409;DHT22;31162;51.076;3.784;2023-02-03T06:24:59;10.40;99.90
45409;DHT22;31162;51.076;3.784;2023-02-03T06:27:25;10.50;99.90
45409;DHT22;31162;51.076;3.784;2023-02-03T06:29:51;10.60;99.90
45409;DHT22;31162;51.076;3.784;2023-02-03T06:32:17;10.70;99.90
45409;DHT22;31162;51.076;3.784;2023-02-03T06:34:42;10.70;99.90
45409;DHT22;31162;51.076;3.784;2023-02-03T06:37:08;10.60;99.90
45409;DHT22;31162;51.076;3.784;2023-02-03T06:39:34;10.70;99.90
45409;DHT22;31162;51.076;3.784;2023-02-03T06:41:59;10.80;99.90
45409;DHT22;31162;51.076;3.784;2023-02-03T06:44:25;10.80;99.90
45409;DHT22;31162;51.076;3.784;2023-02-03T06:46:51;10.90;99.90
45409;DHT22;31162;51.076;3.784;2023-02-03T06:49:17;10.90;99.90
45409;DHT22;31162;51.076;3.784;2023-02-03T06:51:44;10.80;99.90
45409;DHT22;31162;51.076;3.784;2023-02-03T06:54:11;10.80;99.90
45409;DHT22;31162;51.076;3.784;2023-02-03T06:56:37;10.80;99.90
45409;DHT22;31162;51.076;3.784;2023-02-03T06:59:02;10.60;99.90
45409;DHT22;31162;51.076;3.784;2023-02-03T07:01:29;10.50;99.90
45409;DHT22;31162;51.076;3.784;2023-02-03T07:03:55;10.60;99.90
45409;DHT22;31162;51.076;3.784;2023-02-03T07:06:24;10.40;99.90
45409;DHT22;31162;51.076;3.784;2023-02-03T07:08:55;10.50;99.90
45409;DHT22;31162;51.076;3.784;2023-02-03T07:11:22;10.50;99.90
45409;DHT22;31162;51.076;3.784;2023-02-03T07:13:47;10.50;99.90
45409;DHT22;31162;51.076;3.784;2023-02-03T07:16:14;10.40;99.90
45409;DHT22;31162;51.076;3.784;2023-02-03T07:18:39;10.40;99.90
45409;DHT22;31162;51.076;3.784;2023-02-03T07:21:06;10.30;99.90
45409;DHT22;31162;51.076;3.784;2023-02-03T07:23:31;10.30;99.90
45409;DHT22;31162;51.076;3.784;2023-02-03T07:26:04;10.20;99.90
45409;DHT22;31162;51.076;3.784;2023-02-03T07:28:34;10.20;99.90
45409;DHT22;31162;51.076;3.784;2023-02-03T07:31:00;10.10;99.90
45409;DHT22;31162;51.076;3.784;2023-02-03T07:33:27;10.10;99.90
45409;DHT22;31162;51.076;3.784;2023-02-03T07:35:57;10.20;99.90
45409;DHT22;31162;51.076;3.784;2023-02-03T07:38:24;10.30;99.90
45409;DHT22;31162;51.076;3.784;2023-02-03T07:40:51;10.40;99.90
45409;DHT22;31162;51.076;3.784;2023-02-03T07:43:17;10.40;99.90
45409;DHT22;31162;51.076;3.784;2023-02-03T07:45:43;10.30;99.90
45409;DHT22;31162;51.076;3.784;2023-02-03T07:48:09;10.30;99.90
45409;DHT22;31162;51.076;3.784;2023-02-03T07:50:35;10.40;99.90
45409;DHT22;31162;51.076;3.784;2023-02-03T07:53:01;10.40;99.90
45409;DHT22;31162;51.076;3.784;2023-02-03T07:55:27;10.50;99.90
45409;DHT22;31162;51.076;3.784;2023-02-03T07:57:56;10.50;99.90
45409;DHT22;31162;51.076;3.784;2023-02-03T08:00:22;10.40;99.90
45409;DHT22;31162;51.076;3.784;2023-02-03T08:02:48;10.30;99.90
45409;DHT22;31162;51.076;3.784;2023-02-03T08:05:15;10.30;99.90
45409;DHT22;31162;51.076;3.784;2023-02-03T08:07:41;10.30;99.90
45409;DHT22;31162;51.076;3.784;2023-02-03T08:10:08;10.30;99.90
45409;DHT22;31162;51.076;3.784;2023-02-03T08:12:34;10.40;99.90
45409;DHT22;31162;51.076;3.784;2023-02-03T08:14:59;10.40;99.90
45409;DHT22;31162;51.076;3.784;2023-02-03T08:17:25;10.50;99.90
45409;DHT22;31162;51.076;3.784;2023-02-03T08:19:51;10.60;99.90
45409;DHT22;31162;51.076;3.784;2023-02-03T08:22:17;10.70;99.90
45409;DHT22;31162;51.076;3.784;2023-02-03T08:24:45;10.70;99.90
45409;DHT22;31162;51.076;3.784;2023-02-03T08:27:15;10.70;99.90
45409;DHT22;31162;51.076;3.784;2023-02-03T08:29:42;10.70;99.90
45409;DHT22;31162;51.076;3.784;2023-02-03T08:32:13;10.70;99.90
45409;DHT22;31162;51.076;3.784;2023-02-03T08:34:39;10.70;99.90
45409;DHT22;31162;51.076;3.784;2023-02-03T08:37:05;10.80;99.90
45409;DHT22;31162;51.076;3.784;2023-02-03T08:39:32;11.00;99.90
45409;DHT22;31162;51.076;3.784;2023-02-03T08:41:59;11.00;99.90
45409;DHT22;31162;51.076;3.784;2023-02-03T08:44:25;11.10;99.90
45409;DHT22;31162;51.076;3.784;2023-02-03T08:46:52;11.10;99.90
45409;DHT22;31162;51.076;3.784;2023-02-03T08:49:18;11.20;99.90
45409;DHT22;31162;51.076;3.784;2023-02-03T08:51:45;11.30;99.90
45409;DHT22;31162;51.076;3.784;2023-02-03T08:54:11;11.40;99.90
45409;DHT22;31162;51.076;3.784;2023-02-03T08:56:37;11.60;99.90
45409;DHT22;31162;51.076;3.784;2023-02-03T08:59:03;11.90;99.90
45409;DHT22;31162;51.076;3.784;2023-02-03T09:01:28;12.00;99.90
45409;DHT22;31162;51.076;3.784;2023-02-03T09:03:54;11.90;99.90
45409;DHT22;31162;51.076;3.784;2023-02-03T09:06:20;11.90;99.90
45409;DHT22;31162;51.076;3.784;2023-02-03T09:08:47;12.00;99.90
45409;DHT22;31162;51.076;3.784;2023-02-03T09:11:14;12.00;99.90
45409;DHT22;31162;51.076;3.784;2023-02-03T09:13:40;12.10;99.90
45409;DHT22;31162;51.076;3.784;2023-02-03T09:16:11;12.20;99.90
45409;DHT22;31162;51.076;3.784;2023-02-03T09:18:37;12.20;99.90
45409;DHT22;31162;51.076;3.784;2023-02-03T09:21:05;12.40;99.90
45409;DHT22;31162;51.076;3.784;2023-02-03T09:23:32;12.60;99.90
45409;DHT22;31162;51.076;3.784;2023-02-03T09:26:01;12.80;99.90
45409;DHT22;31162;51.076;3.784;2023-02-03T09:28:27;12.90;99.90
45409;DHT22;31162;51.076;3.784;2023-02-03T09:30:53;13.00;99.90
45409;DHT22;31162;51.076;3.784;2023-02-03T09:33:19;12.90;99.90
45409;DHT22;31162;51.076;3.784;2023-02-03T09:35:55;12.90;99.90
45409;DHT22;31162;51.076;3.784;2023-02-03T09:38:21;12.70;99.90
45409;DHT22;31162;51.076;3.784;2023-02-03T09:41:14;12.60;99.90
45409;DHT22;31162;51.076;3.784;2023-02-03T09:44:10;12.70;99.90
45409;DHT22;31162;51.076;3.784;2023-02-03T09:46:41;13.00;99.90
45409;DHT22;31162;51.076;3.784;2023-02-03T09:51:40;13.50;99.90
45409;DHT22;31162;51.076;3.784;2023-02-03T09:54:19;13.70;99.90
45409;DHT22;31162;51.076;3.784;2023-02-03T09:56:47;14.00;99.90
45409;DHT22;31162;51.076;3.784;2023-02-03T09:59:18;14.10;99.90
45409;DHT22;31162;51.076;3.784;2023-02-03T10:02:06;14.20;99.90
45409;DHT22;31162;51.076;3.784;2023-02-03T10:04:43;14.00;99.90
45409;DHT22;31162;51.076;3.784;2023-02-03T10:07:31;14.20;99.90
45409;DHT22;31162;51.076;3.784;2023-02-03T10:10:29;14.30;99.90
45409;DHT22;31162;51.076;3.784;2023-02-03T10:16:10;14.60;99.90
45409;DHT22;31162;51.076;3.784;2023-02-03T10:18:47;14.40;99.90
45409;DHT22;31162;51.076;3.784;2023-02-03T10:21:34;14.50;99.90
45409;DHT22;31162;51.076;3.784;2023-02-03T10:24:04;14.50;99.90
45409;DHT22;31162;51.076;3.784;2023-02-03T10:26:31;14.40;99.90
45409;DHT22;31162;51.076;3.784;2023-02-03T10:29:01;14.30;99.90
45409;DHT22;31162;51.076;3.784;2023-02-03T10:31:33;14.20;99.90
45409;DHT22;31162;51.076;3.784;2023-02-03T10:34:11;14.50;99.90
45409;DHT22;31162;51.076;3.784;2023-02-03T10:39:30;14.30;99.90
45409;DHT22;31162;51.076;3.784;2023-02-03T10:41:57;14.30;99.90
45409;DHT22;31162;51.076;3.784;2023-02-03T10:44:32;14.30;99.90
45409;DHT22;31162;51.076;3.784;2023-02-03T10:47:00;14.60;99.90
45409;DHT22;31162;51.076;3.784;2023-02-03T10:49:26;14.50;99.90
45409;DHT22;31162;51.076;3.784;2023-02-03T10:51:56;14.30;99.90
45409;DHT22;31162;51.076;3.784;2023-02-03T10:54:31;14.00;99.90
45409;DHT22;31162;51.076;3.784;2023-02-03T10:57:03;14.00;99.90
45409;DHT22;31162;51.076;3.784;2023-02-03T10:59:32;14.00;99.90
45409;DHT22;31162;51.076;3.784;2023-02-03T11:01:58;13.80;99.90
45409;DHT22;31162;51.076;3.784;2023-02-03T11:04:30;13.80;99.90
45409;DHT22;31162;51.076;3.784;2023-02-03T11:06:59;13.70;99.90
45409;DHT22;31162;51.076;3.784;2023-02-03T11:09:41;13.80;99.90
45409;DHT22;31162;51.076;3.784;2023-02-03T11:12:14;13.70;99.90
45409;DHT22;31162;51.076;3.784;2023-02-03T11:14:46;13.70;99.90
45409;DHT22;31162;51.076;3.784;2023-02-03T11:17:17;13.70;99.90
45409;DHT22;31162;51.076;3.784;2023-02-03T11:19:44;13.80;99.90
45409;DHT22;31162;51.076;3.784;2023-02-03T11:22:11;13.80;99.90
45409;DHT22;31162;51.076;3.784;2023-02-03T11:24:39;13.70;99.90
45409;DHT22;31162;51.076;3.784;2023-02-03T11:27:10;13.60;99.90
45409;DHT22;31162;51.076;3.784;2023-02-03T11:29:40;13.50;99.90
45409;DHT22;31162;51.076;3.784;2023-02-03T11:32:34;13.60;99.90
45409;DHT22;31162;51.076;3.784;2023-02-03T11:35:03;13.70;99.90
45409;DHT22;31162;51.076;3.784;2023-02-03T11:37:39;13.80;99.90
45409;DHT22;31162;51.076;3.784;2023-02-03T11:42:42;14.10;99.90
45409;DHT22;31162;51.076;3.784;2023-02-03T11:45:27;14.10;99.90
45409;DHT22;31162;51.076;3.784;2023-02-03T11:47:56;14.20;99.90
45409;DHT22;31162;51.076;3.784;2023-02-03T11:53:28;14.40;99.90
45409;DHT22;31162;51.076;3.784;2023-02-03T12:29:03;14.50;99.90
45409;DHT22;31162;51.076;3.784;2023-02-03T12:34:17;14.30;99.90
45409;DHT22;31162;51.076;3.784;2023-02-03T12:36:56;14.40;99.90
45409;DHT22;31162;51.076;3.784;2023-02-03T12:39:43;14.40;99.90
45409;DHT22;31162;51.076;3.784;2023-02-03T12:42:38;14.30;99.90
45409;DHT22;31162;51.076;3.784;2023-02-03T12:45:09;14.40;99.90
45409;DHT22;31162;51.076;3.784;2023-02-03T12:47:41;14.40;99.90
45409;DHT22;31162;51.076;3.784;2023-02-03T12:50:58;14.50;99.90
45409;DHT22;31162;51.076;3.784;2023-02-03T12:55:45;14.30;99.90
45409;DHT22;31162;51.076;3.784;2023-02-03T12:58:44;14.20;99.90
45409;DHT22;31162;51.076;3.784;2023-02-03T13:01:22;14.10;99.90
45409;DHT22;31162;51.076;3.784;2023-02-03T13:03:59;14.30;99.90
45409;DHT22;31162;51.076;3.784;2023-02-03T13:09:59;14.20;99.90
45409;DHT22;31162;51.076;3.784;2023-02-03T13:12:37;14.10;99.90
45409;DHT22;31162;51.076;3.784;2023-02-03T13:18:24;14.30;99.90
45409;DHT22;31162;51.076;3.784;2023-02-03T13:20:52;14.50;99.90
45409;DHT22;31162;51.076;3.784;2023-02-03T13:23:18;14.40;99.90
45409;DHT22;31162;51.076;3.784;2023-02-03T13:44:41;14.30;99.90
45409;DHT22;31162;51.076;3.784;2023-02-03T13:47:16;14.40;99.90
45409;DHT22;31162;51.076;3.784;2023-02-03T13:49:45;14.50;99.90
45409;DHT22;31162;51.076;3.784;2023-02-03T13:52:35;14.60;99.90
45409;DHT22;31162;51.076;3.784;2023-02-03T13:55:03;14.40;99.90
45409;DHT22;31162;51.076;3.784;2023-02-03T13:57:37;14.40;99.90
45409;DHT22;31162;51.076;3.784;2023-02-03T14:00:58;14.50;99.90
45409;DHT22;31162;51.076;3.784;2023-02-03T14:05:46;14.50;99.90
45409;DHT22;31162;51.076;3.784;2023-02-03T14:16:42;14.30;99.90
45409;DHT22;31162;51.076;3.784;2023-02-03T14:19:43;14.40;99.90
45409;DHT22;31162;51.076;3.784;2023-02-03T14:22:08;14.50;99.90
45409;DHT22;31162;51.076;3.784;2023-02-03T14:24:43;14.40;99.90
45409;DHT22;31162;51.076;3.784;2023-02-03T14:27:38;14.40;99.90
45409;DHT22;31162;51.076;3.784;2023-02-03T14:37:54;14.30;99.90
45409;DHT22;31162;51.076;3.784;2023-02-03T14:40:50;14.40;99.90
45409;DHT22;31162;51.076;3.784;2023-02-03T14:43:54;14.40;99.90
45409;DHT22;31162;51.076;3.784;2023-02-03T14:49:32;14.40;99.90
45409;DHT22;31162;51.076;3.784;2023-02-03T14:55:04;14.40;99.90
45409;DHT22;31162;51.076;3.784;2023-02-03T14:57:40;14.40;99.90
45409;DHT22;31162;51.076;3.784;2023-02-03T15:05:38;14.30;99.90
45409;DHT22;31162;51.076;3.784;2023-02-03T15:10:58;14.20;99.90
45409;DHT22;31162;51.076;3.784;2023-02-03T15:13:29;14.30;99.90
45409;DHT22;31162;51.076;3.784;2023-02-03T15:15:59;14.20;99.90
45409;DHT22;31162;51.076;3.784;2023-02-03T15:18:34;14.20;99.90
45409;DHT22;31162;51.076;3.784;2023-02-03T15:21:04;14.20;99.90
45409;DHT22;31162;51.076;3.784;2023-02-03T15:23:43;14.10;99.90
45409;DHT22;31162;51.076;3.784;2023-02-03T15:26:30;13.90;99.90
45409;DHT22;31162;51.076;3.784;2023-02-03T15:28:57;13.80;99.90
45409;DHT22;31162;51.076;3.784;2023-02-03T15:31:37;13.70;99.90
45409;DHT22;31162;51.076;3.784;2023-02-03T15:37:00;13.50;99.90
45409;DHT22;31162;51.076;3.784;2023-02-03T15:39:48;13.40;99.90
45409;DHT22;31162;51.076;3.784;2023-02-03T15:42:26;13.30;99.90
45409;DHT22;31162;51.076;3.784;2023-02-03T15:47:58;13.30;99.90
45409;DHT22;31162;51.076;3.784;2023-02-03T15:50:42;13.00;99.90
45409;DHT22;31162;51.076;3.784;2023-02-03T15:53:31;13.00;99.90
45409;DHT22;31162;51.076;3.784;2023-02-03T15:56:00;13.10;99.90
45409;DHT22;31162;51.076;3.784;2023-02-03T15:58:32;13.10;99.90
45409;DHT22;31162;51.076;3.784;2023-02-03T16:01:04;13.10;99.90
45409;DHT22;31162;51.076;3.784;2023-02-03T16:03:39;12.90;99.90
45409;DHT22;31162;51.076;3.784;2023-02-03T16:06:18;12.80;99.90
45409;DHT22;31162;51.076;3.784;2023-02-03T16:08:45;12.70;99.90
45409;DHT22;31162;51.076;3.784;2023-02-03T16:13:48;12.90;99.90
45409;DHT22;31162;51.076;3.784;2023-02-03T16:16:20;12.90;99.90
45409;DHT22;31162;51.076;3.784;2023-02-03T16:19:00;12.80;99.90
45409;DHT22;31162;51.076;3.784;2023-02-03T16:21:32;12.70;99.90
45409;DHT22;31162;51.076;3.784;2023-02-03T16:23:59;12.40;99.90
45409;DHT22;31162;51.076;3.784;2023-02-03T16:26:29;12.40;99.90
45409;DHT22;31162;51.076;3.784;2023-02-03T16:31:52;12.50;99.90
45409;DHT22;31162;51.076;3.784;2023-02-03T16:34:36;12.50;99.90
45409;DHT22;31162;51.076;3.784;2023-02-03T16:37:32;12.40;99.90
45409;DHT22;31162;51.076;3.784;2023-02-03T16:40:21;12.50;99.90
45409;DHT22;31162;51.076;3.784;2023-02-03T16:43:15;12.50;99.90
45409;DHT22;31162;51.076;3.784;2023-02-03T16:46:00;12.30;99.90
45409;DHT22;31162;51.076;3.784;2023-02-03T16:48:45;12.00;99.90
45409;DHT22;31162;51.076;3.784;2023-02-03T16:51:39;11.90;99.90
45409;DHT22;31162;51.076;3.784;2023-02-03T16:54:09;11.90;99.90
45409;DHT22;31162;51.076;3.784;2023-02-03T16:56:35;11.80;99.90
45409;DHT22;31162;51.076;3.784;2023-02-03T16:59:01;11.90;99.90
45409;DHT22;31162;51.076;3.784;2023-02-03T17:01:26;11.90;99.90
45409;DHT22;31162;51.076;3.784;2023-02-03T17:03:52;11.80;99.90
45409;DHT22;31162;51.076;3.784;2023-02-03T17:06:18;11.70;99.90
45409;DHT22;31162;51.076;3.784;2023-02-03T17:08:44;11.70;99.90
45409;DHT22;31162;51.076;3.784;2023-02-03T17:11:15;11.60;99.90
45409;DHT22;31162;51.076;3.784;2023-02-03T17:13:43;11.60;99.90
45409;DHT22;31162;51.076;3.784;2023-02-03T17:16:12;11.80;99.90
45409;DHT22;31162;51.076;3.784;2023-02-03T17:18:38;11.80;99.90
45409;DHT22;31162;51.076;3.784;2023-02-03T17:21:07;11.90;99.90
45409;DHT22;31162;51.076;3.784;2023-02-03T17:23:33;12.00;99.90
45409;DHT22;31162;51.076;3.784;2023-02-03T17:25:59;12.10;99.90
45409;DHT22;31162;51.076;3.784;2023-02-03T17:28:24;12.10;99.90
45409;DHT22;31162;51.076;3.784;2023-02-03T17:30:59;12.20;99.90
45409;DHT22;31162;51.076;3.784;2023-02-03T17:33:26;12.20;99.90
45409;DHT22;31162;51.076;3.784;2023-02-03T17:36:01;12.20;99.90
45409;DHT22;31162;51.076;3.784;2023-02-03T17:38:28;12.20;99.90
45409;DHT22;31162;51.076;3.784;2023-02-03T17:40:53;12.10;99.90
45409;DHT22;31162;51.076;3.784;2023-02-03T17:43:19;12.10;99.90
45409;DHT22;31162;51.076;3.784;2023-02-03T17:45:45;12.20;99.90
45409;DHT22;31162;51.076;3.784;2023-02-03T17:48:10;12.20;99.90
45409;DHT22;31162;51.076;3.784;2023-02-03T17:50:36;12.30;99.90
45409;DHT22;31162;51.076;3.784;2023-02-03T17:53:02;12.40;99.90
45409;DHT22;31162;51.076;3.784;2023-02-03T17:55:28;12.40;99.90
45409;DHT22;31162;51.076;3.784;2023-02-03T17:57:54;12.30;99.90
45409;DHT22;31162;51.076;3.784;2023-02-03T18:00:19;12.30;99.90
45409;DHT22;31162;51.076;3.784;2023-02-03T18:02:52;12.30;99.90
45409;DHT22;31162;51.076;3.784;2023-02-03T18:05:18;12.30;99.90
45409;DHT22;31162;51.076;3.784;2023-02-03T18:07:43;12.40;99.90
45409;DHT22;31162;51.076;3.784;2023-02-03T18:10:09;12.40;99.90
45409;DHT22;31162;51.076;3.784;2023-02-03T18:12:35;12.30;99.90
45409;DHT22;31162;51.076;3.784;2023-02-03T18:15:01;12.30;99.90
45409;DHT22;31162;51.076;3.784;2023-02-03T18:17:27;12.30;99.90